createdAt,value
2023-02-03T00:01:51.834Z,13.95
2023-02-03T00:04:20.279Z,13.96
2023-02-03T00:06:50.878Z,13.96
2023-02-03T00:09:20.382Z,13.96
2023-02-03T00:11:49.238Z,13.97
2023-02-03T00:14:17.902Z,13.96
2023-02-03T00:16:46.304Z,13.96
2023-02-03T00:19:16.529Z,13.97
2023-02-03T00:21:46.327Z,13.98
2023-02-03T00:24:16.233Z,14.00
2023-02-03T00:26:45.335Z,14.01
2023-02-03T00:29:13.901Z,14.01
2023-02-03T00:31:42.784Z,14.02
2023-02-03T00:34:11.229Z,14.02
2023-02-03T00:36:43.068Z,14.02
2023-02-03T00:39:11.584Z,14.02
2023-02-03T00:41:41.494Z,14.04
2023-02-03T00:44:10.027Z,14.04
2023-02-03T00:46:38.512Z,14.03
2023-02-03T00:49:07.471Z,14.03
2023-02-03T00:51:37.010Z,14.03
2023-02-03T00:54:05.627Z,14.05
2023-02-03T00:56:33.975Z,14.05
2023-02-03T00:59:04.172Z,14.05
2023-02-03T01:01:33.146Z,14.06
2023-02-03T01:04:01.810Z,14.06
2023-02-03T01:06:30.893Z,14.07
2023-02-03T01:08:59.486Z,14.06
2023-02-03T01:11:29.513Z,14.05
2023-02-03T01:13:59.390Z,14.07
2023-02-03T01:16:31.645Z,14.08
2023-02-03T01:19:00.199Z,14.05
2023-02-03T01:21:29.896Z,14.08
2023-02-03T01:23:59.741Z,14.07
2023-02-03T01:26:28.601Z,14.06
2023-02-03T01:28:59.355Z,14.06
2023-02-03T01:31:33.520Z,14.05
2023-02-03T01:34:02.435Z,14.04
2023-02-03T01:36:33.685Z,14.04
2023-02-03T01:39:05.142Z,14.07
2023-02-03T01:41:37.035Z,14.07
2023-02-03T01:44:42.941Z,14.05
2023-02-03T01:47:24.790Z,14.05
2023-02-03T01:50:01.937Z,14.04
2023-02-03T01:52:31.513Z,14.03
2023-02-03T01:55:04.992Z,14.04
2023-02-03T01:57:38.353Z,14.07
2023-02-03T02:00:09.607Z,14.06
2023-02-03T02:02:48.875Z,14.07
2023-02-03T02:05:25.839Z,14.08
2023-02-03T02:07:55.163Z,14.08
2023-02-03T02:10:23.585Z,14.07
2023-02-03T02:12:52.728Z,14.07
2023-02-03T02:15:24.575Z,14.07
2023-02-03T02:18:15.602Z,14.08
2023-02-03T02:21:23.928Z,14.09
2023-02-03T02:24:39.035Z,14.10
2023-02-03T02:27:19.167Z,14.06
2023-02-03T02:30:25.889Z,14.05
2023-02-03T02:33:08.481Z,14.05
2023-02-03T02:35:50.291Z,14.06
2023-02-03T02:38:34.281Z,14.07
2023-02-03T02:41:11.407Z,14.07
2023-02-03T02:43:43.898Z,14.06
2023-02-03T02:46:15.894Z,14.06
2023-02-03T02:48:51.153Z,14.06
2023-02-03T02:51:23.662Z,14.07
2023-02-03T02:53:56.498Z,14.08
2023-02-03T02:56:26.534Z,14.09
2023-02-03T02:58:57.776Z,14.11
2023-02-03T03:01:27.223Z,14.11
2023-02-03T03:03:58.220Z,14.11
2023-02-03T03:06:33.105Z,14.14
2023-02-03T03:09:07.170Z,14.14
2023-02-03T03:11:42.352Z,14.14
2023-02-03T03:14:13.835Z,14.13
2023-02-03T03:16:51.064Z,14.14
2023-02-03T03:19:25.700Z,14.15
2023-02-03T03:21:57.216Z,14.14
2023-02-03T03:24:30.295Z,14.14
2023-02-03T03:27:06.341Z,14.14
2023-02-03T03:29:42.258Z,14.15
2023-02-03T03:32:11.235Z,14.15
2023-02-03T03:34:41.576Z,14.15
2023-02-03T03:37:17.216Z,14.14
2023-02-03T03:39:50.116Z,14.15
2023-02-03T03:42:26.354Z,14.15
2023-02-03T03:45:04.674Z,14.15
2023-02-03T03:47:38.002Z,14.16
2023-02-03T03:50:12.686Z,14.17
2023-02-03T03:52:42.931Z,14.15
2023-02-03T03:55:14.767Z,14.15
2023-02-03T03:57:49.188Z,14.14
2023-02-03T04:00:21.697Z,14.14
2023-02-03T04:02:56.864Z,14.14
2023-02-03T04:05:28.116Z,14.15
2023-02-03T04:07:56.936Z,14.14
2023-02-03T04:10:32.499Z,14.16
2023-02-03T04:13:00.985Z,14.17
2023-02-03T04:15:29.743Z,14.16
2023-02-03T04:17:58.486Z,14.16
2023-02-03T04:20:28.766Z,14.17
2023-02-03T04:22:58.060Z,14.16
2023-02-03T04:25:27.532Z,14.15
2023-02-03T04:27:56.688Z,14.16
2023-02-03T04:30:25.299Z,14.14
2023-02-03T04:32:53.979Z,14.14
2023-02-03T04:35:22.547Z,14.14
2023-02-03T04:37:52.615Z,14.14
2023-02-03T04:40:21.317Z,14.14
2023-02-03T04:42:49.670Z,14.15
2023-02-03T04:45:18.277Z,14.15
2023-02-03T04:47:46.887Z,14.15
2023-02-03T04:50:15.242Z,14.17
2023-02-03T04:52:43.766Z,14.17
2023-02-03T04:55:13.643Z,14.16
2023-02-03T04:57:41.985Z,14.18
2023-02-03T05:00:12.574Z,14.19
2023-02-03T05:02:41.481Z,14.18
2023-02-03T05:05:10.371Z,14.18
2023-02-03T05:07:38.768Z,14.17
2023-02-03T05:10:08.319Z,14.17
2023-02-03T05:12:38.332Z,14.18
2023-02-03T05:15:07.984Z,14.18
2023-02-03T05:17:38.932Z,14.18
2023-02-03T05:20:09.054Z,14.18
2023-02-03T05:22:37.968Z,14.18
2023-02-03T05:25:07.515Z,14.18
2023-02-03T05:27:38.764Z,14.18
2023-02-03T05:30:08.544Z,14.20
2023-02-03T05:32:36.902Z,14.19
2023-02-03T05:35:05.855Z,14.19
2023-02-03T05:37:34.271Z,14.20
2023-02-03T05:40:16.583Z,14.20
2023-02-03T05:42:49.874Z,14.23
2023-02-03T05:45:18.731Z,14.23
2023-02-03T05:47:47.781Z,14.23
2023-02-03T05:50:16.796Z,14.23
2023-02-03T05:52:45.377Z,14.23
2023-02-03T05:55:13.777Z,14.22
2023-02-03T05:57:42.978Z,14.21
2023-02-03T06:00:15.196Z,14.24
2023-02-03T06:02:43.597Z,14.23
2023-02-03T06:05:12.162Z,14.23
2023-02-03T06:07:40.465Z,14.24
2023-02-03T06:10:10.080Z,14.24
2023-02-03T06:12:39.371Z,14.24
2023-02-03T06:15:09.542Z,14.25
2023-02-03T06:17:39.470Z,14.25
2023-02-03T06:20:10.092Z,14.26
2023-02-03T06:22:38.467Z,14.25
2023-02-03T06:25:08.144Z,14.25
2023-02-03T06:27:37.101Z,14.24
2023-02-03T06:30:06.554Z,14.25
2023-02-03T06:32:35.027Z,14.25
2023-02-03T06:35:05.378Z,14.24
2023-02-03T06:37:35.765Z,14.23
2023-02-03T06:40:04.836Z,14.24
2023-02-03T06:42:33.759Z,14.23
2023-02-03T06:45:02.167Z,14.23
2023-02-03T06:47:30.570Z,14.22
2023-02-03T06:49:59.255Z,14.22
2023-02-03T06:52:29.055Z,14.23
2023-02-03T06:54:57.578Z,14.23
2023-02-03T06:57:26.041Z,14.23
2023-02-03T06:59:55.091Z,14.24
2023-02-03T07:02:23.746Z,14.24
2023-02-03T07:04:52.271Z,14.22
2023-02-03T07:07:20.723Z,14.20
2023-02-03T07:09:50.653Z,14.22
2023-02-03T07:12:19.003Z,14.19
2023-02-03T07:14:47.459Z,14.20
2023-02-03T07:17:15.891Z,14.20
2023-02-03T07:19:46.048Z,14.20
2023-02-03T07:22:15.451Z,14.20
2023-02-03T07:24:43.822Z,14.19
2023-02-03T07:27:13.672Z,14.19
2023-02-03T07:29:42.111Z,14.18
2023-02-03T07:32:11.155Z,14.18
2023-02-03T07:34:39.712Z,14.16
2023-02-03T07:37:08.116Z,14.16
2023-02-03T07:39:36.575Z,14.16
2023-02-03T07:42:05.285Z,14.15
2023-02-03T07:44:40.244Z,14.16
2023-02-03T07:47:09.774Z,14.15
2023-02-03T07:49:38.412Z,14.14
2023-02-03T07:52:06.854Z,14.15
2023-02-03T07:54:35.296Z,14.16
2023-02-03T07:57:03.764Z,14.17
2023-02-03T07:59:32.077Z,14.18
2023-02-03T08:02:01.914Z,14.22
2023-02-03T08:04:30.583Z,14.23
2023-02-03T08:06:59.108Z,14.23
2023-02-03T08:09:27.547Z,14.25
2023-02-03T08:11:55.903Z,14.26
2023-02-03T08:14:24.395Z,14.26
2023-02-03T08:16:52.783Z,14.27
2023-02-03T08:19:22.545Z,14.30
2023-02-03T08:21:51.412Z,14.29
2023-02-03T08:24:19.904Z,14.31
2023-02-03T08:26:48.510Z,14.30
2023-02-03T08:29:17.000Z,14.30
2023-02-03T08:31:45.524Z,14.31
2023-02-03T08:34:14.096Z,14.31
2023-02-03T08:36:44.563Z,14.32
2023-02-03T08:39:13.481Z,14.33
2023-02-03T08:41:41.935Z,14.35
2023-02-03T08:44:10.717Z,14.33
2023-02-03T08:46:43.492Z,14.34
2023-02-03T08:49:12.296Z,14.37
2023-02-03T08:51:41.577Z,14.36
2023-02-03T08:54:11.385Z,14.38
2023-02-03T08:56:40.427Z,14.37
2023-02-03T08:59:09.283Z,14.38
2023-02-03T09:01:37.861Z,14.39
2023-02-03T09:04:08.318Z,14.39
2023-02-03T09:06:37.771Z,14.39
2023-02-03T09:09:06.433Z,14.41
2023-02-03T09:11:36.765Z,14.41
2023-02-03T09:14:07.368Z,14.40
2023-02-03T09:16:35.931Z,14.41
2023-02-03T09:19:04.464Z,14.41
2023-02-03T09:21:39.444Z,14.41
2023-02-03T09:24:15.234Z,14.38
2023-02-03T09:26:45.184Z,14.40
2023-02-03T09:29:13.909Z,14.40
2023-02-03T09:31:42.357Z,14.41
2023-02-03T09:34:11.171Z,14.39
2023-02-03T09:36:41.294Z,14.41
2023-02-03T09:39:10.640Z,14.41
2023-02-03T09:42:11.638Z,14.40
2023-02-03T09:44:47.802Z,14.41
2023-02-03T09:47:19.781Z,14.41
2023-02-03T09:49:52.668Z,14.44
2023-02-03T09:52:23.708Z,14.44
2023-02-03T09:55:04.178Z,14.44
2023-02-03T09:57:43.637Z,14.45
2023-02-03T10:00:23.124Z,14.45
2023-02-03T10:03:00.363Z,14.45
2023-02-03T10:05:45.812Z,14.45
2023-02-03T10:08:27.349Z,14.45
2023-02-03T10:11:13.393Z,14.46
2023-02-03T10:13:53.397Z,14.45
2023-02-03T10:16:43.247Z,14.46
2023-02-03T10:19:20.707Z,14.47
2023-02-03T10:21:55.513Z,14.49
2023-02-03T10:24:31.433Z,14.51
2023-02-03T10:27:00.331Z,14.51
2023-02-03T10:29:37.679Z,14.52
2023-02-03T10:32:10.836Z,14.52
2023-02-03T10:34:40.868Z,14.50
2023-02-03T10:37:22.501Z,14.52
2023-02-03T10:39:53.394Z,14.52
2023-02-03T10:42:23.562Z,14.53
2023-02-03T10:44:58.241Z,14.53
2023-02-03T10:47:35.021Z,14.54
2023-02-03T10:50:08.891Z,14.54
2023-02-03T10:52:37.972Z,14.55
2023-02-03T10:55:11.477Z,14.54
2023-02-03T10:57:41.975Z,14.53
2023-02-03T11:00:25.195Z,14.55
2023-02-03T11:02:58.866Z,14.54
2023-02-03T11:05:27.527Z,14.54
2023-02-03T11:07:57.021Z,14.55
2023-02-03T11:10:36.857Z,14.57
2023-02-03T11:13:22.541Z,14.58
2023-02-03T11:15:59.581Z,14.57
2023-02-03T11:18:40.897Z,14.57
2023-02-03T11:21:17.679Z,14.58
2023-02-03T11:23:55.387Z,14.58
2023-02-03T11:26:28.597Z,14.57
2023-02-03T11:29:00.470Z,14.59
2023-02-03T11:31:34.593Z,14.58
2023-02-03T11:34:07.047Z,14.59
2023-02-03T11:36:36.801Z,14.60
2023-02-03T11:39:28.294Z,14.61
2023-02-03T11:41:57.865Z,14.62
2023-02-03T11:44:31.087Z,14.63
2023-02-03T11:47:05.390Z,14.65
2023-02-03T11:50:03.645Z,14.66
2023-02-03T11:53:07.378Z,14.65
2023-02-03T11:55:49.824Z,14.67
2023-02-03T11:59:15.510Z,14.67
2023-02-03T12:02:37.475Z,14.67
2023-02-03T12:05:26.217Z,14.69
2023-02-03T12:08:08.599Z,14.69
2023-02-03T12:10:49.335Z,14.71
2023-02-03T12:13:35.173Z,14.74
2023-02-03T12:16:21.006Z,14.75
2023-02-03T12:19:03.149Z,14.76
2023-02-03T12:21:45.044Z,14.78
2023-02-03T12:24:35.823Z,14.78
2023-02-03T12:27:18.766Z,14.79
2023-02-03T12:29:52.311Z,14.80
2023-02-03T12:32:30.829Z,14.83
2023-02-03T12:35:12.664Z,14.82
2023-02-03T12:37:49.737Z,14.82
2023-02-03T12:40:24.168Z,14.83
2023-02-03T12:42:58.636Z,14.82
2023-02-03T12:45:30.976Z,14.84
2023-02-03T12:48:06.144Z,14.86
2023-02-03T12:50:42.443Z,14.83
2023-02-03T12:53:19.920Z,14.84
2023-02-03T12:56:02.897Z,14.82
2023-02-03T12:58:36.259Z,14.81
2023-02-03T13:01:10.305Z,14.82
2023-02-03T13:03:47.464Z,14.82
2023-02-03T13:06:23.933Z,14.85
2023-02-03T13:09:02.132Z,14.86
2023-02-03T13:11:37.744Z,14.88
2023-02-03T13:14:17.001Z,14.89
2023-02-03T13:16:53.321Z,14.90
2023-02-03T13:19:26.841Z,14.92
2023-02-03T13:21:55.395Z,14.92
2023-02-03T13:24:29.001Z,14.96
2023-02-03T13:27:17.949Z,14.96
2023-02-03T13:30:09.992Z,14.97
2023-02-03T13:33:26.708Z,14.96
2023-02-03T13:36:11.087Z,14.97
2023-02-03T13:39:18.904Z,14.95
2023-02-03T13:41:53.294Z,14.95
2023-02-03T13:44:26.808Z,14.96
2023-02-03T13:46:58.507Z,14.98
2023-02-03T13:49:30.888Z,14.99
2023-02-03T13:51:59.755Z,14.99
2023-02-03T13:54:31.758Z,15.00
2023-02-03T13:57:03.836Z,14.98
2023-02-03T13:59:43.377Z,14.96
2023-02-03T14:02:42.562Z,14.93
2023-02-03T14:05:51.030Z,14.89
2023-02-03T14:08:51.945Z,14.84
2023-02-03T14:11:46.132Z,14.80
2023-02-03T14:15:04.060Z,14.75
2023-02-03T14:18:21.756Z,14.65
2023-02-03T14:21:13.575Z,14.58
2023-02-03T14:23:58.977Z,14.55
2023-02-03T14:26:42.265Z,14.53
2023-02-03T14:29:25.861Z,14.48
2023-02-03T14:32:00.769Z,14.47
2023-02-03T14:34:33.036Z,14.44
2023-02-03T14:37:17.810Z,14.41
2023-02-03T14:40:33.655Z,14.35
2023-02-03T14:43:34.856Z,14.30
2023-02-03T14:46:32.343Z,14.30
2023-02-03T14:49:23.616Z,14.29
2023-02-03T14:52:09.375Z,14.30
2023-02-03T14:54:59.892Z,14.26
2023-02-03T14:57:40.700Z,14.27
2023-02-03T15:00:28.639Z,14.26
2023-02-03T15:03:25.732Z,14.26
2023-02-03T15:05:58.831Z,14.28
2023-02-03T15:08:42.318Z,14.29
2023-02-03T15:11:34.147Z,14.30
2023-02-03T15:14:26.998Z,14.29
2023-02-03T15:16:58.935Z,14.29
2023-02-03T15:19:33.025Z,14.30
2023-02-03T15:22:01.755Z,14.31
2023-02-03T15:24:37.877Z,14.31
2023-02-03T15:27:23.339Z,14.32
2023-02-03T15:29:51.831Z,14.32
2023-02-03T15:32:28.927Z,14.33
2023-02-03T15:34:59.362Z,14.34
2023-02-03T15:37:33.504Z,14.34
2023-02-03T15:40:07.985Z,14.33
2023-02-03T15:42:45.287Z,14.32
2023-02-03T15:45:31.682Z,14.34
2023-02-03T15:48:05.591Z,14.34
2023-02-03T15:50:38.137Z,14.35
2023-02-03T15:53:11.963Z,14.37
2023-02-03T15:55:45.151Z,14.38
2023-02-03T15:58:21.257Z,14.39
2023-02-03T16:00:53.419Z,14.39
2023-02-03T16:03:29.814Z,14.39
2023-02-03T16:06:00.239Z,14.38
2023-02-03T16:08:43.173Z,14.38
2023-02-03T16:11:33.390Z,14.38
2023-02-03T16:14:06.743Z,14.37
2023-02-03T16:16:43.676Z,14.39
2023-02-03T16:19:22.904Z,14.39
2023-02-03T16:21:56.941Z,14.38
2023-02-03T16:24:40.831Z,14.40
2023-02-03T16:27:34.503Z,14.41
2023-02-03T16:30:52.185Z,14.40
2023-02-03T16:33:38.303Z,14.39
2023-02-03T16:36:32.514Z,14.41
2023-02-03T16:39:23.077Z,14.40
2023-02-03T16:42:09.374Z,14.39
2023-02-03T16:44:55.680Z,14.37
2023-02-03T16:47:45.790Z,14.36
2023-02-03T16:50:38.537Z,14.35
2023-02-03T16:53:13.517Z,14.33
2023-02-03T16:55:42.258Z,14.33
2023-02-03T16:58:12.470Z,14.35
2023-02-03T17:00:42.013Z,14.35
2023-02-03T17:03:15.150Z,14.37
2023-02-03T17:05:45.734Z,14.38
2023-02-03T17:08:16.249Z,14.37
2023-02-03T17:10:47.937Z,14.37
2023-02-03T17:13:17.696Z,14.37
2023-02-03T17:15:48.137Z,14.37
2023-02-03T17:18:20.089Z,14.37
2023-02-03T17:20:49.424Z,14.37
2023-02-03T17:23:18.247Z,14.37
2023-02-03T17:25:49.269Z,14.38
2023-02-03T17:28:18.394Z,14.37
2023-02-03T17:30:46.980Z,14.37
2023-02-03T17:33:16.807Z,14.38
2023-02-03T17:35:46.639Z,14.39
2023-02-03T17:38:15.597Z,14.36
2023-02-03T17:54:42.906Z,14.27
2023-02-03T17:57:11.570Z,14.27
2023-02-03T17:59:39.944Z,14.29
2023-02-03T18:02:08.316Z,14.29
2023-02-03T18:04:38.552Z,14.30
2023-02-03T18:07:07.030Z,14.29
2023-02-03T18:09:35.511Z,14.30
2023-02-03T18:12:04.008Z,14.29
2023-02-03T18:14:32.851Z,14.30
2023-02-03T18:17:01.374Z,14.30
2023-02-03T18:19:29.898Z,14.30
2023-02-03T18:22:00.949Z,14.32
2023-02-03T18:24:30.649Z,14.32
2023-02-03T18:27:00.522Z,14.31
2023-02-03T18:29:29.770Z,14.31
2023-02-03T18:31:58.497Z,14.30
2023-02-03T18:34:27.009Z,14.28
2023-02-03T18:36:55.429Z,14.28
2023-02-03T18:39:25.544Z,14.29
2023-02-03T18:41:54.204Z,14.29
2023-02-03T18:44:24.864Z,14.29
2023-02-03T18:46:54.187Z,14.27
2023-02-03T18:49:23.560Z,14.25
2023-02-03T18:51:52.028Z,14.25
2023-02-03T18:54:20.816Z,14.25
2023-02-03T18:56:50.796Z,14.26
2023-02-03T18:59:19.610Z,14.27
2023-02-03T19:01:48.553Z,14.26
2023-02-03T19:04:16.953Z,14.25
2023-02-03T19:06:46.860Z,14.24
2023-02-03T19:09:17.985Z,14.22
2023-02-03T19:11:47.127Z,14.22
2023-02-03T19:14:17.411Z,14.20
2023-02-03T19:16:46.210Z,14.18
2023-02-03T19:19:15.138Z,14.15
2023-02-03T19:21:43.896Z,14.15
2023-02-03T19:24:14.948Z,14.14
2023-02-03T19:26:43.838Z,14.13
2023-02-03T19:29:12.440Z,14.13
2023-02-03T19:31:42.485Z,14.14
2023-02-03T19:34:12.883Z,14.14
2023-02-03T19:36:41.663Z,14.13
2023-02-03T19:39:10.076Z,14.12
2023-02-03T19:41:38.610Z,14.13
2023-02-03T19:44:07.918Z,14.14
2023-02-03T19:46:38.720Z,14.12
2023-02-03T19:49:13.023Z,14.12
2023-02-03T19:51:41.848Z,14.11
2023-02-03T19:54:13.828Z,14.10
2023-02-03T19:56:42.496Z,14.08
2023-02-03T19:59:11.539Z,14.08
2023-02-03T20:01:40.233Z,14.05
2023-02-03T20:04:10.429Z,14.04
2023-02-03T20:06:39.960Z,14.02
2023-02-03T20:09:08.627Z,14.00
2023-02-03T20:11:37.111Z,13.97
2023-02-03T20:14:06.347Z,13.98
2023-02-03T20:16:35.491Z,13.97
2023-02-03T20:19:04.333Z,13.97
2023-02-03T20:21:34.409Z,13.96
2023-02-03T20:24:03.181Z,13.95
2023-02-03T20:26:32.938Z,13.92
2023-02-03T20:29:01.690Z,13.90
2023-02-03T20:31:31.402Z,13.87
2023-02-03T20:33:59.858Z,13.86
2023-02-03T20:36:28.338Z,13.86
2023-02-03T20:38:58.938Z,13.89
2023-02-03T20:41:27.578Z,13.88
2023-02-03T20:43:56.360Z,13.88
2023-02-03T20:46:24.935Z,13.87
2023-02-03T20:48:53.405Z,13.87
2023-02-03T20:51:24.078Z,13.87
2023-02-03T20:53:52.869Z,13.85
2023-02-03T20:56:23.912Z,13.86
2023-02-03T20:58:52.467Z,13.85
2023-02-03T21:01:23.530Z,13.84
2023-02-03T21:04:10.692Z,13.83
2023-02-03T21:06:40.736Z,13.82
2023-02-03T21:09:16.071Z,13.82
2023-02-03T21:11:46.586Z,13.81
2023-02-03T21:14:21.467Z,13.82
2023-02-03T21:16:50.936Z,13.83
2023-02-03T21:19:32.889Z,13.81
2023-02-03T21:22:14.557Z,13.78
2023-02-03T21:24:47.833Z,13.78
2023-02-03T21:27:28.862Z,13.77
2023-02-03T21:29:58.597Z,13.77
2023-02-03T21:32:34.782Z,13.77
2023-02-03T21:35:03.274Z,13.77
2023-02-03T21:37:42.960Z,13.76
2023-02-03T21:40:31.404Z,13.75
2023-02-03T21:43:03.344Z,13.73
2023-02-03T21:45:42.689Z,13.73
2023-02-03T21:48:33.217Z,13.72
2023-02-03T21:51:04.827Z,13.70
2023-02-03T21:53:36.151Z,13.71
2023-02-03T21:56:19.243Z,13.71
2023-02-03T21:58:50.884Z,13.72
2023-02-03T22:01:22.971Z,13.73
2023-02-03T22:03:54.018Z,13.72
2023-02-03T22:06:30.598Z,13.73
2023-02-03T22:09:00.120Z,13.73
2023-02-03T22:11:33.722Z,13.73
2023-02-03T22:14:03.613Z,13.73
2023-02-03T22:16:32.524Z,13.73
2023-02-03T22:19:01.336Z,13.74
2023-02-03T22:21:29.818Z,13.73
2023-02-03T22:23:59.201Z,13.72
2023-02-03T22:26:27.880Z,13.71
2023-02-03T22:28:56.552Z,13.71
2023-02-03T22:31:27.063Z,13.71
2023-02-03T22:33:55.618Z,13.69
2023-02-03T22:36:25.260Z,13.68
2023-02-03T22:38:53.680Z,13.70
2023-02-03T22:41:22.396Z,13.71
2023-02-03T22:43:50.719Z,13.70
2023-02-03T22:46:19.469Z,13.69
2023-02-03T22:48:49.637Z,13.69
2023-02-03T22:51:18.105Z,13.69
2023-02-03T22:53:46.474Z,13.67
2023-02-03T22:56:14.860Z,13.65
2023-02-03T22:58:43.313Z,13.65
2023-02-03T23:01:12.001Z,13.65
2023-02-03T23:03:40.341Z,13.65
2023-02-03T23:06:13.935Z,13.67
2023-02-03T23:08:42.922Z,13.66
2023-02-03T23:11:11.611Z,13.68
2023-02-03T23:13:40.279Z,13.69
2023-02-03T23:16:12.170Z,13.69
2023-02-03T23:18:40.788Z,13.68
2023-02-03T23:21:11.297Z,13.67
2023-02-03T23:23:40.311Z,13.64
2023-02-03T23:26:08.743Z,13.62
2023-02-03T23:28:37.256Z,13.60
2023-02-03T23:31:06.289Z,13.61
2023-02-03T23:33:35.222Z,13.58
2023-02-03T23:36:02.850Z,13.55
2023-02-03T23:38:33.449Z,13.57
2023-02-03T23:41:04.756Z,13.56
2023-02-03T23:43:33.177Z,13.54
2023-02-03T23:46:02.141Z,13.53
2023-02-03T23:48:30.702Z,13.53
2023-02-03T23:50:59.379Z,13.55
2023-02-03T23:53:28.599Z,13.53
2023-02-03T23:55:58.361Z,13.54
2023-02-03T23:58:27.273Z,13.55
